Time;durP1;ratioP1;P1;durP2;ratioP2;P2;SDS_P1;SDS_P2;PMS_P1;PMS_P2;Temp;Humidity;BMP_temperature;BMP_pressure;BME280_temperature;BME280_humidity;BME280_pressure;Samples;Min_cycle;Max_cycle;Signal;HPM_P1;HPM_P2
2021/05/21 00:02:26;;;;;;;5.87;2.05;;;;;;;15.29;65.84;100204.27;1749427;82;20926;-70
2021/05/21 00:04:53;;;;;;;1.00;0.88;;;;;;;15.19;66.04;100190.69;1736957;81;20991;-70
2021/05/21 00:07:20;;;;;;;1.05;0.95;;;;;;;15.09;66.16;100192.77;1735411;82;21590;-70
2021/05/21 00:09:49;;;;;;;3.75;1.05;;;;;;;15.05;66.17;100191.84;1735486;82;21388;-70
2021/05/21 00:12:15;;;;;;;1.00;0.88;;;;;;;14.98;66.63;100195.50;1735377;82;20982;-70
2021/05/21 00:14:43;;;;;;;2.70;1.10;;;;;;;14.98;66.69;100199.95;1735451;81;20959;-71
2021/05/21 00:17:10;;;;;;;1.40;1.30;;;;;;;14.94;66.77;100194.11;1735387;82;20910;-70
2021/05/21 00:19:36;;;;;;;1.42;1.17;;;;;;;14.91;67.03;100191.22;1735431;82;20903;-70
2021/05/21 00:22:03;;;;;;;2.52;1.40;;;;;;;14.92;67.05;100190.77;1735481;82;21133;-69
2021/05/21 00:24:30;;;;;;;2.12;1.35;;;;;;;14.89;66.86;100197.11;1735467;82;20899;-70
2021/05/21 00:26:57;;;;;;;2.87;1.40;;;;;;;14.86;67.05;100192.11;1735398;81;20902;-69
2021/05/21 00:29:24;;;;;;;3.08;1.20;;;;;;;14.85;66.50;100197.05;1735522;82;20994;-70
2021/05/21 00:31:51;;;;;;;8.10;1.50;;;;;;;14.85;66.50;100197.05;1735354;82;20971;-69
2021/05/21 00:34:18;;;;;;;3.02;1.70;;;;;;;14.83;66.75;100191.06;1735565;82;21172;-68
2021/05/21 00:36:45;;;;;;;2.50;1.00;;;;;;;14.84;66.80;100191.40;1735356;82;21514;-69
2021/05/21 00:39:12;;;;;;;1.82;1.15;;;;;;;14.86;66.19;100182.03;1735498;81;20962;-69
2021/05/21 00:41:39;;;;;;;5.05;1.47;;;;;;;14.87;65.98;100182.38;1735438;81;20903;-69
2021/05/21 00:44:06;;;;;;;2.33;1.35;;;;;;;14.88;66.12;100186.70;1735261;82;20919;-70
2021/05/21 00:46:35;;;;;;;1.45;1.17;;;;;;;14.88;66.02;100194.13;1735433;82;21111;-69
2021/05/21 00:49:03;;;;;;;2.40;1.57;;;;;;;14.86;65.92;100184.67;1735317;81;21022;-67
2021/05/21 00:51:30;;;;;;;2.15;1.02;;;;;;;14.85;66.05;100177.25;1735421;82;20891;-69
2021/05/21 00:53:58;;;;;;;1.15;1.05;;;;;;;14.85;66.05;100174.61;1735459;82;20883;-68
2021/05/21 00:56:26;;;;;;;2.40;1.87;;;;;;;14.84;66.23;100159.72;1735620;82;20975;-68
2021/05/21 00:58:54;;;;;;;1.37;1.27;;;;;;;14.81;66.10;100163.13;1735312;82;21859;-69
2021/05/21 01:01:21;;;;;;;1.87;1.10;;;;;;;14.79;66.29;100167.20;1714870;82;21416;-69
2021/05/21 01:03:48;;;;;;;2.55;1.12;;;;;;;14.77;66.52;100159.89;1735352;81;20875;-68
2021/05/21 01:06:16;;;;;;;5.25;1.20;;;;;;;14.75;66.44;100155.23;1735396;82;21543;-69
2021/05/21 01:08:43;;;;;;;1.50;1.27;;;;;;;14.70;66.66;100170.13;1735489;82;21018;-68
2021/05/21 01:11:10;;;;;;;2.77;1.15;;;;;;;14.71;66.79;100178.39;1735265;82;21847;-69
2021/05/21 01:13:38;;;;;;;1.95;0.90;;;;;;;14.70;67.03;100177.23;1735474;81;20958;-69
2021/05/21 01:16:05;;;;;;;2.55;0.80;;;;;;;14.69;67.40;100172.41;1735406;81;21479;-69
2021/05/21 01:18:32;;;;;;;3.15;1.20;;;;;;;14.68;67.48;100172.06;1735408;82;20999;-69
2021/05/21 01:20:59;;;;;;;2.92;1.12;;;;;;;14.68;67.53;100185.75;1735654;82;21328;-70
2021/05/21 01:23:26;;;;;;;4.72;1.07;;;;;;;14.69;67.05;100175.05;1735506;82;21163;-69
2021/05/21 01:25:53;;;;;;;5.03;1.35;;;;;;;14.70;66.98;100181.19;1735524;82;20958;-69
2021/05/21 01:28:20;;;;;;;2.27;0.72;;;;;;;14.65;66.51;100178.94;1735619;82;21097;-70
2021/05/21 01:30:48;;;;;;;2.40;0.62;;;;;;;14.63;65.74;100176.91;1735669;82;20926;-69
2021/05/21 01:33:15;;;;;;;1.92;1.17;;;;;;;14.49;65.70;100168.77;1735547;82;21443;-70
2021/05/21 01:35:42;;;;;;;0.62;0.62;;;;;;;14.43;65.56;100169.80;1735527;82;21520;-70
2021/05/21 01:38:09;;;;;;;0.80;0.78;;;;;;;14.43;65.56;100169.80;1735514;81;20919;-70
2021/05/21 01:40:36;;;;;;;1.20;1.10;;;;;;;14.33;65.49;100176.79;1714801;82;21400;-69
2021/05/21 01:43:03;;;;;;;1.82;0.68;;;;;;;14.33;65.49;100176.79;1735570;81;20978;-70
2021/05/21 01:45:30;;;;;;;2.72;0.82;;;;;;;14.20;65.76;100173.00;1735583;82;20891;-69
2021/05/21 01:47:58;;;;;;;2.45;0.80;;;;;;;14.20;65.76;100173.00;1735479;82;21099;-69
2021/05/21 01:50:25;;;;;;;2.80;0.95;;;;;;;14.20;65.56;100177.78;1735496;82;20946;-68
2021/05/21 01:52:51;;;;;;;1.90;0.80;;;;;;;14.21;65.61;100186.56;1735657;82;21006;-68
2021/05/21 01:55:18;;;;;;;3.22;0.72;;;;;;;14.19;65.38;100184.04;1735554;82;20942;-69
2021/05/21 01:57:45;;;;;;;3.15;0.70;;;;;;;14.20;64.92;100185.70;1735588;82;20958;-69
2021/05/21 02:00:14;;;;;;;0.78;0.70;;;;;;;14.20;64.92;100185.70;1735686;82;21089;-68
2021/05/21 02:02:42;;;;;;;0.75;0.65;;;;;;;14.17;64.81;100190.41;1735541;81;20994;-68
2021/05/21 02:05:10;;;;;;;0.60;0.60;;;;;;;14.10;64.42;100185.63;1744670;81;21367;-69
2021/05/21 02:07:40;;;;;;;2.65;0.70;;;;;;;14.10;64.42;100185.63;1749367;82;20858;-68
2021/05/21 02:10:09;;;;;;;0.47;0.20;;;;;;;14.10;64.79;100187.44;1749396;80;20898;-69
2021/05/21 02:12:36;;;;;;;1.57;1.00;;;;;;;14.10;64.27;100179.03;1749442;80;21364;-69
2021/05/21 02:15:08;;;;;;;2.33;0.60;;;;;;;14.08;64.25;100179.64;1749320;80;21008;-68
2021/05/21 02:17:35;;;;;;;1.70;0.72;;;;;;;14.09;64.46;100175.20;1749465;82;20934;-67
2021/05/21 02:20:05;;;;;;;0.80;0.68;;;;;;;14.10;64.23;100177.72;1749505;81;20930;-68
2021/05/21 02:22:34;;;;;;;1.12;0.50;;;;;;;14.07;63.21;100168.75;1749443;80;21514;-69
2021/05/21 02:25:01;;;;;;;1.75;0.75;;;;;;;14.03;63.28;100165.17;1722222;82;21102;-70
2021/05/21 02:27:28;;;;;;;2.10;0.70;;;;;;;14.04;62.40;100173.43;1749351;82;20887;-69
2021/05/21 02:29:55;;;;;;;3.80;0.50;;;;;;;14.03;63.38;100173.92;1749386;82;20938;-69
2021/05/21 02:32:22;;;;;;;1.12;0.53;;;;;;;14.03;63.38;100173.92;1749501;82;20989;-68
2021/05/21 02:34:49;;;;;;;1.02;0.60;;;;;;;14.07;61.93;100166.58;1749548;82;20878;-68
2021/05/21 02:37:18;;;;;;;2.35;0.53;;;;;;;14.07;61.93;100166.58;1749505;82;21107;-69
2021/05/21 02:39:45;;;;;;;1.85;0.60;;;;;;;14.04;61.74;100168.98;1749455;80;21021;-69
2021/05/21 02:42:12;;;;;;;0.60;0.53;;;;;;;14.06;61.93;100168.38;1749471;82;21594;-69
2021/05/21 02:44:39;;;;;;;0.80;0.50;;;;;;;14.15;61.11;100156.24;1749560;82;20922;-69
2021/05/21 02:47:06;;;;;;;1.70;0.65;;;;;;;14.15;61.11;100156.24;1749477;82;20894;-71
2021/05/21 02:49:34;;;;;;;1.70;0.65;;;;;;;14.15;60.91;100162.01;1749490;82;21086;-69
2021/05/21 02:52:04;;;;;;;1.45;0.70;;;;;;;14.14;60.97;100157.67;1749282;82;21091;-69
2021/05/21 02:54:31;;;;;;;2.25;0.68;;;;;;;14.17;60.64;100157.44;1749539;80;20989;-69
2021/05/21 02:56:59;;;;;;;3.72;1.20;;;;;;;14.17;60.64;100157.44;1749507;82;20918;-70
2021/05/21 02:59:26;;;;;;;0.68;0.40;;;;;;;14.16;60.58;100153.98;1749356;82;20902;-70
2021/05/21 03:01:53;;;;;;;1.37;0.53;;;;;;;14.13;60.64;100146.30;1749489;82;21087;-68
2021/05/21 03:04:21;;;;;;;1.30;0.33;;;;;;;14.09;60.51;100150.15;1749255;80;20887;-69
2021/05/21 03:06:48;;;;;;;2.33;0.50;;;;;;;14.01;60.76;100153.91;1749490;82;20870;-68
2021/05/21 03:09:16;;;;;;;1.90;0.33;;;;;;;13.94;61.02;100161.49;1749508;82;21514;-69
2021/05/21 03:11:45;;;;;;;1.32;0.40;;;;;;;13.88;61.20;100162.81;1749447;82;21494;-69
2021/05/21 03:14:13;;;;;;;0.50;0.50;;;;;;;13.87;61.39;100156.34;1749461;82;21102;-68
2021/05/21 03:16:41;;;;;;;4.00;0.40;;;;;;;13.85;61.47;100152.98;1749315;82;20900;-69
2021/05/21 03:19:08;;;;;;;0.98;0.60;;;;;;;13.85;61.28;100152.98;1749572;80;21423;-68
2021/05/21 03:21:35;;;;;;;1.75;0.60;;;;;;;13.83;61.13;100154.94;1749527;82;20998;-69
2021/05/21 03:24:02;;;;;;;3.50;1.05;;;;;;;13.83;61.18;100164.16;1749403;80;20998;-69
2021/05/21 03:26:30;;;;;;;0.98;0.50;;;;;;;13.83;61.20;100158.89;1749318;82;20894;-68
2021/05/21 03:28:57;;;;;;;1.02;0.30;;;;;;;13.89;61.33;100168.45;1749374;80;21422;-69
2021/05/21 03:31:25;;;;;;;1.40;0.30;;;;;;;13.93;61.06;100155.84;1749412;82;21371;-69
2021/05/21 03:33:52;;;;;;;2.95;0.57;;;;;;;13.99;61.24;100162.43;1749410;82;21029;-68
2021/05/21 03:36:19;;;;;;;0.68;0.50;;;;;;;14.05;61.14;100162.77;1749318;80;20898;-69
2021/05/21 03:38:46;;;;;;;5.42;0.50;;;;;;;14.09;60.74;100156.74;1749516;82;21069;-69
2021/05/21 03:41:12;;;;;;;2.20;0.40;;;;;;;14.07;60.40;100159.52;1749431;82;20960;-68
2021/05/21 03:43:40;;;;;;;1.07;0.53;;;;;;;14.07;60.47;100163.94;1749534;82;21029;-70
2021/05/21 03:46:07;;;;;;;2.08;0.53;;;;;;;14.13;60.82;100162.61;1749346;82;20926;-68
2021/05/21 03:48:35;;;;;;;2.00;1.20;;;;;;;14.17;60.12;100166.67;1749431;82;20930;-69
2021/05/21 03:51:02;;;;;;;3.02;0.57;;;;;;;14.19;60.25;100169.53;1749462;80;21096;-69
2021/05/21 03:53:29;;;;;;;7.87;0.40;;;;;;;14.17;59.83;100162.72;1749274;82;20894;-71
2021/05/21 03:55:56;;;;;;;2.05;0.78;;;;;;;14.22;59.94;100173.23;1749480;82;21360;-69
2021/05/21 03:58:24;;;;;;;0.33;0.30;;;;;;;14.27;59.44;100175.02;1749278;82;21017;-69
2021/05/21 04:00:51;;;;;;;2.33;0.50;;;;;;;14.30;59.26;100178.72;1749455;82;20879;-68
2021/05/21 04:03:17;;;;;;;1.47;0.42;;;;;;;14.33;59.10;100180.26;1749559;82;21683;-68
2021/05/21 04:05:45;;;;;;;0.62;0.30;;;;;;;14.31;59.16;100179.55;1749345;81;20974;-69
2021/05/21 04:08:13;;;;;;;0.40;0.40;;;;;;;14.31;59.20;100180.38;1749283;82;20949;-70
2021/05/21 04:10:40;;;;;;;1.02;0.30;;;;;;;14.30;58.84;100185.31;1749418;82;20870;-68
2021/05/21 04:13:07;;;;;;;0.88;0.53;;;;;;;14.33;59.98;100189.48;1749401;82;21335;-70
2021/05/21 04:15:35;;;;;;;1.15;0.40;;;;;;;14.37;59.63;100188.77;1749283;82;21152;-70
2021/05/21 04:18:01;;;;;;;0.70;0.53;;;;;;;14.37;59.63;100188.77;1749212;82;20990;-70
2021/05/21 04:20:28;;;;;;;1.17;0.95;;;;;;;14.38;59.53;100195.21;1749385;82;20922;-69
2021/05/21 04:22:56;;;;;;;0.75;0.47;;;;;;;14.37;59.68;100200.64;1749243;80;21001;-70
2021/05/21 04:25:23;;;;;;;1.07;0.42;;;;;;;14.36;59.56;100195.85;1749382;80;20978;-67
2021/05/21 04:27:50;;;;;;;2.02;0.65;;;;;;;14.36;59.62;100199.81;1749365;82;21033;-69
2021/05/21 04:30:21;;;;;;;4.00;0.70;;;;;;;14.38;59.81;100196.53;1749183;81;20899;-69
2021/05/21 04:32:47;;;;;;;0.78;0.47;;;;;;;14.38;59.54;100193.06;1749420;82;20906;-74
2021/05/21 04:35:14;;;;;;;1.22;0.55;;;;;;;14.34;59.45;100199.55;1721884;82;21009;-75
2021/05/21 04:37:41;;;;;;;2.65;0.85;;;;;;;14.33;59.82;100201.85;1749390;82;20871;-75
2021/05/21 04:40:09;;;;;;;0.55;0.55;;;;;;;14.34;59.44;100203.51;1749419;82;21725;-75
2021/05/21 04:42:36;;;;;;;2.37;0.50;;;;;;;14.34;59.44;100203.51;1749362;82;21001;-75
2021/05/21 04:45:06;;;;;;;1.62;0.35;;;;;;;14.43;59.21;100206.24;1749250;80;20942;-75
2021/05/21 04:47:35;;;;;;;3.95;0.60;;;;;;;14.43;59.21;100206.24;1749428;82;21483;-75
2021/05/21 04:50:05;;;;;;;3.47;0.57;;;;;;;14.55;59.49;100224.20;1749304;82;20981;-76
2021/05/21 04:52:32;;;;;;;2.55;0.88;;;;;;;14.55;59.49;100224.20;1749458;80;21689;-75
2021/05/21 04:54:59;;;;;;;0.40;0.40;;;;;;;14.67;59.87;100221.88;1749279;80;20902;-75
2021/05/21 04:57:27;;;;;;;1.75;0.35;;;;;;;14.67;59.38;100231.11;1749321;82;20886;-74
2021/05/21 04:59:54;;;;;;;1.32;0.50;;;;;;;14.67;59.38;100231.11;1749365;80;21146;-71
2021/05/21 05:02:33;;;;;;;1.12;0.42;;;;;;;14.64;59.17;100223.92;1749356;80;21388;-73
2021/05/21 05:05:01;;;;;;;1.65;0.62;;;;;;;14.65;59.19;100228.22;1746810;81;21176;-72
2021/05/21 05:07:27;;;;;;;1.22;0.40;;;;;;;14.64;59.15;100228.70;1735275;81;20871;-75
2021/05/21 05:09:55;;;;;;;1.02;0.45;;;;;;;14.62;59.06;100228.00;1735300;82;21067;-75
2021/05/21 05:12:22;;;;;;;1.12;0.40;;;;;;;14.61;58.62;100230.30;1735214;81;21519;-79
2021/05/21 05:14:49;;;;;;;2.20;0.53;;;;;;;14.57;58.62;100230.68;1735540;82;20899;-75
2021/05/21 05:19:49;;;;;;;2.65;0.40;;;;;;;14.49;59.15;100238.69;1813090;79;23210;-74
2021/05/21 05:22:17;;;;;;;2.62;0.50;;;;;;;14.43;59.32;100249.77;1783904;80;20989;-76
2021/05/21 05:24:44;;;;;;;3.50;0.47;;;;;;;14.44;59.56;100240.05;1783806;80;21035;-74
2021/05/21 05:27:10;;;;;;;3.05;1.02;;;;;;;14.48;59.48;100242.31;1783637;80;21068;-73
2021/05/21 05:29:38;;;;;;;0.98;0.30;;;;;;;14.47;59.36;100241.97;1783627;80;21482;-74
2021/05/21 05:32:05;;;;;;;0.42;0.42;;;;;;;14.47;59.36;100241.97;1783739;80;21353;-75
2021/05/21 05:34:32;;;;;;;0.65;0.40;;;;;;;14.49;59.61;100238.69;1783698;79;21044;-76
2021/05/21 05:37:00;;;;;;;3.12;0.30;;;;;;;14.53;59.94;100245.05;1783789;80;21504;-73
2021/05/21 05:39:27;;;;;;;0.57;0.57;;;;;;;14.51;60.07;100244.69;1783520;80;20964;-74
2021/05/21 05:41:54;;;;;;;0.80;0.35;;;;;;;14.54;60.67;100243.62;1783794;80;20997;-74
2021/05/21 05:44:21;;;;;;;0.80;0.33;;;;;;;14.62;60.27;100232.44;1783673;79;21422;-74
2021/05/21 05:46:49;;;;;;;2.60;0.30;;;;;;;14.67;58.88;100243.45;1783712;79;20937;-74
2021/05/21 05:49:17;;;;;;;4.37;0.37;;;;;;;14.64;58.53;100243.71;1783700;80;21919;-71
2021/05/21 05:51:44;;;;;;;5.28;0.40;;;;;;;14.66;58.10;100252.34;1783578;80;20925;-72
2021/05/21 05:54:11;;;;;;;2.42;0.30;;;;;;;14.70;57.69;100240.57;1783694;79;20901;-70
2021/05/21 05:56:38;;;;;;;1.12;0.33;;;;;;;14.72;57.34;100250.52;1783698;80;21518;-70
2021/05/21 05:59:05;;;;;;;1.87;0.40;;;;;;;14.75;57.88;100244.14;1783671;80;21000;-70
2021/05/21 06:01:32;;;;;;;3.45;0.82;;;;;;;14.81;57.70;100241.00;1783564;79;21032;-69
2021/05/21 06:03:58;;;;;;;0.20;0.20;;;;;;;14.91;57.68;100244.52;1783713;80;20969;-71
2021/05/21 06:06:25;;;;;;;0.20;0.20;;;;;;;14.91;57.68;100244.52;1783799;80;20925;-71
2021/05/21 06:08:53;;;;;;;2.87;0.40;;;;;;;14.92;56.16;100240.93;1783543;79;21013;-69
2021/05/21 06:11:19;;;;;;;1.75;0.30;;;;;;;14.89;56.32;100238.04;1783649;80;20988;-71
2021/05/21 06:13:48;;;;;;;3.10;0.17;;;;;;;14.85;55.51;100242.39;1783785;80;21482;-70
2021/05/21 06:16:15;;;;;;;1.22;0.20;;;;;;;14.81;55.97;100248.91;1783756;80;20944;-69
2021/05/21 06:18:42;;;;;;;1.02;0.17;;;;;;;14.80;56.16;100246.73;1777916;79;21574;-69
2021/05/21 06:21:10;;;;;;;1.07;0.17;;;;;;;14.79;56.43;100251.67;1770230;79;20871;-72
2021/05/21 06:23:38;;;;;;;0.57;0.03;;;;;;;14.81;56.20;100250.23;1770347;81;21494;-70
2021/05/21 06:26:16;;;;;;;1.57;0.10;;;;;;;14.83;56.18;100249.14;1770119;81;21803;-69
2021/05/21 06:28:41;;;;;;;1.15;0.20;;;;;;;14.84;56.11;100248.65;1769710;79;21396;-69
2021/05/21 06:31:09;;;;;;;0.45;0.17;;;;;;;14.86;56.51;100260.75;1769716;81;20969;-70
2021/05/21 06:33:36;;;;;;;1.07;0.10;;;;;;;15.05;57.22;100256.09;1769680;81;20965;-68
2021/05/21 06:36:03;;;;;;;3.20;0.40;;;;;;;15.05;57.22;100256.09;1769707;79;20906;-69
2021/05/21 06:38:30;;;;;;;1.87;0.20;;;;;;;15.18;57.15;100267.75;1769720;81;21042;-69
2021/05/21 06:40:57;;;;;;;0.53;0.20;;;;;;;15.30;56.70;100277.28;1769591;81;20926;-69
2021/05/21 06:43:27;;;;;;;2.87;0.20;;;;;;;15.40;56.66;100269.89;1769515;81;21384;-68
2021/05/21 06:45:54;;;;;;;4.90;0.20;;;;;;;15.47;56.02;100268.38;1769789;79;20910;-69
2021/05/21 06:48:22;;;;;;;0.20;0.10;;;;;;;15.53;55.98;100274.47;1769722;81;21403;-69
2021/05/21 06:50:49;;;;;;;0.28;0.10;;;;;;;15.56;55.43;100284.77;1769767;79;21084;-68
2021/05/21 06:53:16;;;;;;;1.05;0.20;;;;;;;15.57;55.60;100285.63;1769454;81;20981;-69
2021/05/21 06:55:44;;;;;;;0.35;0.10;;;;;;;15.55;55.04;100281.78;1769667;80;21372;-68
2021/05/21 06:58:11;;;;;;;1.50;0.30;;;;;;;15.47;54.53;100279.81;1769506;79;20950;-68
2021/05/21 07:00:42;;;;;;;0.30;0.13;;;;;;;15.41;54.84;100280.83;1769644;81;20926;-69
2021/05/21 07:03:08;;;;;;;0.35;0.10;;;;;;;15.38;55.43;100273.97;1769648;81;21095;-70
2021/05/21 07:05:35;;;;;;;1.10;0.20;;;;;;;15.41;55.93;100282.15;1769556;81;21001;-69
2021/05/21 07:08:03;;;;;;;1.07;0.20;;;;;;;15.43;56.06;100277.54;1769640;79;21391;-68
2021/05/21 07:10:31;;;;;;;0.70;0.23;;;;;;;15.49;55.82;100292.38;1769448;81;20911;-68
2021/05/21 07:13:12;;;;;;;0.98;0.10;;;;;;;15.55;56.05;100291.86;1769668;79;21485;-68
2021/05/21 07:15:40;;;;;;;0.50;0.10;;;;;;;15.64;56.40;100294.20;1766080;80;21034;-68
2021/05/21 07:18:07;;;;;;;0.70;0.20;;;;;;;15.75;55.80;100296.78;1769482;80;20941;-69
2021/05/21 07:20:34;;;;;;;2.00;0.20;;;;;;;15.85;55.99;100294.65;1769654;81;20981;-69
2021/05/21 07:23:01;;;;;;;0.10;0.10;;;;;;;15.95;55.53;100297.68;1769629;81;20910;-68
2021/05/21 07:25:28;;;;;;;2.15;0.20;;;;;;;16.01;54.21;100297.64;1769749;81;20937;-70
2021/05/21 07:27:55;;;;;;;1.50;0.20;;;;;;;16.01;54.21;100297.64;1769576;79;21085;-70
2021/05/21 07:30:23;;;;;;;0.90;0.20;;;;;;;16.01;54.94;100304.72;1769742;81;20898;-69
2021/05/21 07:32:51;;;;;;;0.82;0.25;;;;;;;16.03;54.95;100303.64;1769566;81;20890;-69
2021/05/21 07:35:17;;;;;;;1.60;0.25;;;;;;;16.07;54.99;100302.37;1769580;79;21466;-69
2021/05/21 07:37:45;;;;;;;3.20;0.20;;;;;;;16.15;55.21;100311.80;1769629;81;20926;-69
2021/05/21 07:40:13;;;;;;;0.57;0.20;;;;;;;16.27;55.13;100313.00;1769629;81;21057;-68
2021/05/21 07:42:40;;;;;;;2.92;0.23;;;;;;;16.38;54.04;100303.61;1769378;81;20925;-69
2021/05/21 07:45:08;;;;;;;2.35;0.30;;;;;;;16.45;54.32;100315.81;1769536;81;20890;-69
2021/05/21 07:47:35;;;;;;;1.75;0.15;;;;;;;16.56;54.80;100313.03;1769604;81;21541;-69
2021/05/21 07:50:04;;;;;;;0.57;0.20;;;;;;;16.65;54.23;100315.34;1769530;81;20925;-67
2021/05/21 07:52:31;;;;;;;0.78;0.15;;;;;;;16.67;53.51;100325.31;1769553;81;21072;-68
2021/05/21 07:55:01;;;;;;;1.70;0.20;;;;;;;16.59;52.99;100319.39;1769384;79;21470;-69
2021/05/21 07:57:28;;;;;;;0.20;0.10;;;;;;;16.52;53.52;100315.14;1769541;79;20954;-69
2021/05/21 07:59:55;;;;;;;2.55;0.50;;;;;;;16.50;53.96;100325.03;1769552;81;20977;-69
2021/05/21 08:02:22;;;;;;;0.70;0.20;;;;;;;16.54;54.39;100325.57;1769658;81;20925;-69
2021/05/21 08:04:50;;;;;;;0.17;0.10;;;;;;;16.61;54.41;100325.39;1769493;81;20955;-68
2021/05/21 08:07:17;;;;;;;3.25;0.20;;;;;;;16.64;53.96;100326.42;1769430;79;20974;-67
2021/05/21 08:09:48;;;;;;;1.00;0.30;;;;;;;16.66;54.53;100331.59;1769642;81;20890;-69
2021/05/21 08:12:12;;;;;;;0.72;0.20;;;;;;;16.65;53.99;100328.11;1769186;80;21395;-68
2021/05/21 08:14:41;;;;;;;0.57;0.10;;;;;;;16.63;53.62;100327.88;1769686;81;20930;-68
2021/05/21 08:17:10;;;;;;;1.10;0.20;;;;;;;16.56;53.68;100313.03;1769499;81;21545;-68
2021/05/21 08:19:38;;;;;;;0.08;0.00;;;;;;;16.51;53.73;100324.04;1774002;80;21012;-69
2021/05/21 08:22:05;;;;;;;1.75;0.20;;;;;;;16.53;53.67;100327.39;1778022;80;20874;-67
2021/05/21 08:24:33;;;;;;;1.02;0.10;;;;;;;16.52;53.85;100316.47;1777960;80;20917;-68
2021/05/21 08:27:00;;;;;;;0.10;0.10;;;;;;;16.52;53.89;100323.58;1778053;80;21442;-68
2021/05/21 08:29:27;;;;;;;4.28;0.20;;;;;;;16.53;53.99;100328.71;1778107;79;20975;-68
2021/05/21 08:31:54;;;;;;;0.60;0.20;;;;;;;16.58;54.04;100325.65;1777879;79;20926;-68
2021/05/21 08:34:21;;;;;;;0.25;0.20;;;;;;;16.58;53.87;100332.27;1778065;79;20921;-67
2021/05/21 08:36:49;;;;;;;0.90;0.10;;;;;;;16.60;53.75;100332.14;1777888;80;21470;-68
2021/05/21 08:39:16;;;;;;;0.72;0.10;;;;;;;16.55;54.16;100337.36;1777946;80;20977;-71
2021/05/21 08:41:44;;;;;;;0.28;0.10;;;;;;;16.61;54.59;100341.73;1777954;80;21040;-72
2021/05/21 08:44:11;;;;;;;1.17;0.10;;;;;;;16.67;54.35;100342.02;1778053;79;20905;-70
2021/05/21 08:46:38;;;;;;;0.50;0.20;;;;;;;16.64;53.47;100346.78;1777944;80;20953;-68
2021/05/21 08:49:06;;;;;;;0.65;0.10;;;;;;;16.57;53.72;100345.17;1777857;80;21510;-68
2021/05/21 08:51:33;;;;;;;0.45;0.25;;;;;;;16.53;53.92;100341.95;1778146;80;20940;-68
2021/05/21 08:54:00;;;;;;;0.28;0.20;;;;;;;16.53;54.11;100342.44;1777928;80;21355;-69
2021/05/21 08:56:27;;;;;;;1.22;0.13;;;;;;;16.59;54.37;100341.90;1778006;80;20961;-68
2021/05/21 08:58:58;;;;;;;1.60;0.10;;;;;;;16.67;53.93;100338.55;1777925;80;20993;-70
2021/05/21 09:01:27;;;;;;;0.53;0.10;;;;;;;16.78;54.61;100341.92;1778139;80;20901;-69
2021/05/21 09:04:02;;;;;;;2.83;0.10;;;;;;;16.89;53.55;100346.25;1778048;79;20922;-70
2021/05/21 09:06:30;;;;;;;0.10;0.10;;;;;;;16.96;53.57;100343.88;1778054;79;21096;-68
2021/05/21 09:08:59;;;;;;;0.82;0.20;;;;;;;17.02;53.70;100343.32;1777859;79;20961;-70
2021/05/21 09:11:38;;;;;;;0.78;0.20;;;;;;;17.06;53.34;100347.37;1777971;80;21522;-70
2021/05/21 09:14:14;;;;;;;2.15;0.20;;;;;;;17.10;53.35;100349.26;1777948;80;20985;-70
2021/05/21 09:16:43;;;;;;;2.05;0.30;;;;;;;17.13;53.13;100348.97;1778088;80;20929;-69
2021/05/21 09:19:16;;;;;;;11.60;2.47;;;;;;;17.17;53.15;100353.84;1777867;80;21659;-69
2021/05/21 09:22:06;;;;;;;11.70;3.37;;;;;;;17.20;53.32;100355.36;1778016;79;28620;-71
2021/05/21 09:24:41;;;;;;;2.02;0.78;;;;;;;17.23;53.78;100344.97;1778104;80;20890;-69
2021/05/21 09:27:08;;;;;;;9.63;2.00;;;;;;;17.36;53.53;100347.69;1777906;80;21029;-69
2021/05/21 09:29:52;;;;;;;15.30;3.05;;;;;;;17.48;53.14;100345.70;1777839;80;20937;-69
2021/05/21 09:32:33;;;;;;;3.87;0.80;;;;;;;17.53;53.02;100350.06;1777935;79;21139;-69
2021/05/21 09:35:07;;;;;;;4.95;1.15;;;;;;;17.61;52.77;100352.02;1777880;80;21411;-69
2021/05/21 09:37:35;;;;;;;42.60;12.80;;;;;;;17.73;52.49;100350.84;1778001;80;21544;-69
2021/05/21 09:40:20;;;;;;;1.90;0.82;;;;;;;17.91;52.91;100342.16;1777851;79;20886;-70
2021/05/21 09:42:58;;;;;;;2.22;0.13;;;;;;;18.13;52.52;100345.75;1777916;80;21470;-70
2021/05/21 09:45:39;;;;;;;2.85;0.57;;;;;;;18.48;51.88;100342.83;1778018;79;21803;-69
2021/05/21 09:48:08;;;;;;;4.22;1.00;;;;;;;18.77;51.30;100341.78;1777933;80;21036;-69
2021/05/21 09:50:49;;;;;;;11.25;3.52;;;;;;;19.13;50.60;100339.12;1777876;80;20983;-69
2021/05/21 09:53:20;;;;;;;1.72;0.60;;;;;;;19.47;49.81;100332.52;1777909;80;21005;-68
2021/05/21 09:56:01;;;;;;;0.50;0.20;;;;;;;19.80;49.33;100338.06;1778060;80;20949;-68
2021/05/21 09:58:33;;;;;;;0.45;0.30;;;;;;;20.04;48.10;100331.52;1777907;79;21099;-69
2021/05/21 10:01:15;;;;;;;0.93;0.30;;;;;;;20.27;47.92;100330.92;1777876;79;21419;-67
2021/05/21 10:03:53;;;;;;;1.00;0.20;;;;;;;20.47;47.98;100333.62;1777953;79;20981;-68
2021/05/21 10:06:24;;;;;;;7.72;1.90;;;;;;;20.77;47.88;100334.56;1778245;80;20914;-70
2021/05/21 10:08:54;;;;;;;1.32;0.30;;;;;;;21.07;47.66;100339.20;1773515;80;20878;-70
2021/05/21 10:11:19;;;;;;;1.60;0.33;;;;;;;21.27;47.31;100337.53;1777962;80;21105;-69
2021/05/21 10:13:46;;;;;;;0.98;0.70;;;;;;;21.46;47.52;100343.88;1778115;80;21008;-71
2021/05/21 10:16:15;;;;;;;2.92;0.85;;;;;;;21.75;46.95;100342.98;1778228;80;20890;-72
2021/05/21 10:18:48;;;;;;;0.70;0.30;;;;;;;21.93;46.16;100357.75;1778141;80;20946;-72
2021/05/21 10:21:16;;;;;;;0.68;0.30;;;;;;;22.02;45.12;100348.38;1777748;80;20886;-74
2021/05/21 10:24:05;;;;;;;3.62;0.57;;;;;;;21.99;45.02;100354.05;1778045;80;21418;-73
2021/05/21 10:26:34;;;;;;;4.30;0.40;;;;;;;21.93;44.83;100348.91;1775829;80;20902;-71
2021/05/21 10:29:14;;;;;;;2.60;0.40;;;;;;;22.05;45.38;100353.36;1778473;80;21351;-73
2021/05/21 10:31:41;;;;;;;2.05;0.30;;;;;;;22.13;44.82;100343.48;1752210;80;20886;-72
2021/05/21 10:34:18;;;;;;;0.57;0.20;;;;;;;22.29;43.91;100347.11;1727287;79;20969;-69
2021/05/21 10:37:24;;;;;;;0.33;0.30;;;;;;;22.49;43.59;100346.98;1778099;80;21090;-68
2021/05/21 10:40:13;;;;;;;0.25;0.20;;;;;;;22.65;43.79;100345.22;1778083;80;20977;-70
2021/05/21 10:43:00;;;;;;;3.87;0.30;;;;;;;22.99;43.82;100351.50;1778111;80;20902;-70
2021/05/21 10:45:28;;;;;;;5.72;0.42;;;;;;;23.28;42.19;100345.42;1775781;80;21527;-69
2021/05/21 10:48:04;;;;;;;1.45;0.40;;;;;;;23.40;42.22;100353.00;1777972;80;20981;-70
2021/05/21 10:50:38;;;;;;;0.20;0.20;;;;;;;23.57;41.42;100347.30;1778321;80;21095;-70
2021/05/21 10:53:09;;;;;;;0.40;0.28;;;;;;;23.75;41.46;100351.48;1777942;79;20961;-70
2021/05/21 10:55:50;;;;;;;0.30;0.20;;;;;;;23.90;40.80;100352.80;1777710;80;21496;-70
2021/05/21 10:58:30;;;;;;;2.00;0.20;;;;;;;24.00;40.11;100355.52;1778129;80;20953;-70
2021/05/21 11:01:12;;;;;;;0.70;0.40;;;;;;;24.03;40.71;100350.30;1778034;80;21040;-72
2021/05/21 11:04:01;;;;;;;3.30;0.75;;;;;;;24.10;40.14;100361.95;1778049;80;21624;-70
2021/05/21 11:06:31;;;;;;;0.55;0.20;;;;;;;24.17;40.42;100357.50;1778084;80;20958;-70
2021/05/21 11:09:09;;;;;;;1.50;0.30;;;;;;;24.26;40.21;100356.06;1778040;79;20945;-70
2021/05/21 11:11:57;;;;;;;0.50;0.30;;;;;;;24.29;39.80;100354.34;1777972;79;21024;-71
2021/05/21 11:14:29;;;;;;;0.50;0.33;;;;;;;24.39;39.72;100354.36;1764789;80;20965;-71
2021/05/21 11:17:12;;;;;;;1.60;0.20;;;;;;;24.43;39.47;100360.67;1778126;80;21056;-70
2021/05/21 11:20:00;;;;;;;1.17;0.25;;;;;;;24.36;39.79;100353.38;1778103;80;21349;-70
2021/05/21 11:22:37;;;;;;;2.62;0.30;;;;;;;24.20;39.68;100350.41;1777957;80;21078;-70
2021/05/21 11:25:10;;;;;;;0.20;0.20;;;;;;;23.92;39.29;100352.11;1778107;80;21530;-70
2021/05/21 11:27:40;;;;;;;3.62;0.33;;;;;;;23.69;39.76;100365.06;1775054;80;26949;-71
2021/05/21 11:30:09;;;;;;;0.47;0.20;;;;;;;23.51;40.36;100361.41;1777953;80;21110;-71
2021/05/21 11:32:38;;;;;;;1.35;0.37;;;;;;;23.40;40.79;100372.56;1778102;80;20960;-72
2021/05/21 11:35:07;;;;;;;1.72;0.20;;;;;;;23.23;40.23;100372.37;1778111;80;21222;-71
2021/05/21 11:37:34;;;;;;;3.45;0.37;;;;;;;22.94;41.12;100363.22;1778035;80;21449;-74